createdAt,value
2022-08-19T00:03:00.476Z,98993.72
2022-08-19T00:07:04.404Z,98991.34
2022-08-19T00:11:09.573Z,98992.00
2022-08-19T00:15:23.535Z,98992.69
2022-08-19T00:19:27.114Z,99001.94
2022-08-19T00:23:30.464Z,98991.34
2022-08-19T00:27:35.717Z,98984.47
2022-08-19T00:31:38.944Z,98976.84
2022-08-19T00:35:42.178Z,98978.00
2022-08-19T00:39:45.829Z,98974.75
2022-08-19T00:44:06.333Z,98987.88
2022-08-19T00:48:14.874Z,98989.16
2022-08-19T00:52:23.136Z,98983.44
2022-08-19T00:56:27.470Z,98973.19
2022-08-19T01:00:37.578Z,98970.16
2022-08-19T01:04:40.925Z,98971.44
2022-08-19T01:08:44.088Z,98966.38
2022-08-19T01:12:48.355Z,98961.22
2022-08-19T01:16:55.517Z,98966.59
2022-08-19T01:21:01.740Z,98970.16
2022-08-19T01:25:09.975Z,98986.38
2022-08-19T01:29:18.419Z,98983.03
2022-08-19T01:33:23.631Z,98997.03
2022-08-19T01:37:27.231Z,99005.28
2022-08-19T01:41:31.878Z,99004.63
2022-08-19T01:45:38.618Z,99005.69
2022-08-19T01:49:41.793Z,99006.66
2022-08-19T01:53:44.972Z,99007.69
2022-08-19T01:57:52.689Z,99005.09
2022-08-19T02:01:56.253Z,99001.84
2022-08-19T02:06:01.286Z,99007.94
2022-08-19T02:10:09.418Z,99022.09
2022-08-19T02:14:17.313Z,99033.13
2022-08-19T02:18:20.596Z,99035.34
2022-08-19T02:22:31.092Z,99031.78
2022-08-19T02:26:34.673Z,99023.81
2022-08-19T02:30:39.435Z,99008.97
2022-08-19T02:34:42.722Z,99006.56
2022-08-19T02:38:47.680Z,99030.00
2022-08-19T02:42:58.960Z,99064.25
2022-08-19T02:47:04.088Z,99064.53
2022-08-19T02:51:07.402Z,99061.09
2022-08-19T02:55:11.419Z,99067.13
2022-08-19T02:59:14.829Z,99057.06
2022-08-19T03:03:19.907Z,99070.31
2022-08-19T03:07:23.515Z,99063.41
2022-08-19T03:11:29.299Z,99059.56
2022-08-19T03:15:32.732Z,99055.28
2022-08-19T03:19:37.424Z,99059.03
2022-08-19T03:23:41.520Z,99059.31
2022-08-19T03:27:45.115Z,99069.47
2022-08-19T03:31:52.482Z,99060.66
2022-08-19T03:36:06.481Z,99073.59
2022-08-19T03:40:10.527Z,99086.53
2022-08-19T03:44:21.897Z,99084.06
2022-08-19T03:48:25.428Z,99096.31
2022-08-19T03:52:29.862Z,99098.22
2022-08-19T03:56:33.061Z,99099.25
2022-08-19T04:00:36.873Z,99101.94
2022-08-19T04:04:41.689Z,99104.44
2022-08-19T04:08:48.027Z,99108.75
2022-08-19T04:12:51.540Z,99106.66
2022-08-19T04:16:55.457Z,99104.75
2022-08-19T04:20:58.823Z,99114.63
2022-08-19T04:25:03.389Z,99125.47
2022-08-19T04:29:12.733Z,99124.59
2022-08-19T04:33:17.907Z,99127.28
2022-08-19T04:37:29.528Z,99111.19
2022-08-19T04:41:57.658Z,99112.03
2022-08-19T04:46:06.175Z,99105.53
2022-08-19T04:50:12.811Z,99121.44
2022-08-19T04:54:33.743Z,99131.06
2022-08-19T04:58:43.402Z,99136.06
2022-08-19T05:02:46.877Z,99133.78
2022-08-19T05:06:50.748Z,99128.81
2022-08-19T05:10:54.026Z,99130.19
2022-08-19T05:14:59.016Z,99138.75
2022-08-19T05:19:19.803Z,99140.94
2022-08-19T05:23:23.118Z,99140.41
2022-08-19T05:27:26.560Z,99152.50
2022-08-19T05:31:31.230Z,99162.00
2022-08-19T05:35:34.746Z,99181.31
2022-08-19T05:39:39.758Z,99190.72
2022-08-19T05:43:43.211Z,99194.84
2022-08-19T05:47:48.051Z,99198.19
2022-08-19T05:51:52.155Z,99228.38
2022-08-19T05:55:55.298Z,99242.72
2022-08-19T06:00:01.416Z,99244.38
2022-08-19T06:04:16.264Z,99246.97
2022-08-19T06:08:19.700Z,99261.28
2022-08-19T06:12:31.670Z,99260.91
2022-08-19T06:16:36.080Z,99265.03
2022-08-19T06:20:55.515Z,99263.75
2022-08-19T06:24:59.176Z,99268.38
2022-08-19T06:29:02.809Z,99253.38
2022-08-19T06:33:06.128Z,99265.28
2022-08-19T06:37:10.953Z,99252.38
2022-08-19T06:41:14.007Z,99256.41
2022-08-19T06:45:17.145Z,99250.56
2022-08-19T06:49:20.806Z,99247.16
2022-08-19T06:53:25.724Z,99251.00
2022-08-19T06:57:33.635Z,99249.81
2022-08-19T07:01:38.549Z,99251.13
2022-08-19T07:05:45.659Z,99239.94
2022-08-19T07:10:00.888Z,99217.97
2022-08-19T07:14:07.546Z,99236.13
2022-08-19T07:18:23.972Z,99243.47
2022-08-19T07:22:30.240Z,99234.78
2022-08-19T07:26:40.855Z,99227.56
2022-08-19T07:30:45.562Z,99219.59
2022-08-19T07:34:48.692Z,99205.25
2022-08-19T07:38:55.292Z,99216.56
2022-08-19T07:43:00.130Z,99206.22
2022-08-19T07:47:04.199Z,99200.81
2022-08-19T07:51:09.665Z,99195.84
2022-08-19T07:55:42.651Z,99179.25
2022-08-19T07:59:37.693Z,99183.97
2022-08-19T08:03:58.420Z,99173.78
2022-08-19T08:08:18.976Z,99179.56
2022-08-19T08:12:35.146Z,99175.59
2022-08-19T08:16:47.067Z,99188.03
2022-08-19T08:20:50.575Z,99192.41
2022-08-19T08:24:53.970Z,99198.84
2022-08-19T08:28:57.287Z,99208.72
2022-08-19T08:33:02.690Z,99207.81
2022-08-19T08:37:06.077Z,99213.34
2022-08-19T08:41:20.805Z,99222.97
2022-08-19T08:45:25.425Z,99219.41
2022-08-19T08:49:36.032Z,99247.25
2022-08-19T08:53:41.985Z,99244.06
2022-08-19T08:57:55.783Z,99254.28
2022-08-19T09:01:59.343Z,99256.84
2022-08-19T09:06:06.297Z,99253.16
2022-08-19T09:10:25.815Z,99230.50
2022-08-19T09:14:51.077Z,99223.28
2022-08-19T09:18:56.520Z,99227.84
2022-08-19T09:23:01.131Z,99204.47
2022-08-19T09:27:16.006Z,99204.94
2022-08-19T09:31:30.519Z,99197.72
2022-08-19T09:35:49.942Z,99194.50
2022-08-19T09:39:58.979Z,99179.59
2022-08-19T09:44:02.242Z,99167.66
2022-08-19T09:48:07.221Z,99165.72
2022-08-19T09:52:13.606Z,99172.19
2022-08-19T09:56:20.110Z,99175.94
2022-08-19T10:00:23.908Z,99177.56
2022-08-19T10:04:47.289Z,99183.63
2022-08-19T10:08:51.193Z,99180.97
2022-08-19T10:12:56.998Z,99171.88
2022-08-19T10:17:01.351Z,99171.31
2022-08-19T10:21:25.552Z,99174.63
2022-08-19T10:25:28.972Z,99175.06
2022-08-19T10:29:36.894Z,99176.19
2022-08-19T10:33:53.835Z,99185.91
2022-08-19T10:38:02.085Z,99192.25
2022-08-19T10:42:07.940Z,99201.66
2022-08-19T10:46:16.472Z,99227.69
2022-08-19T10:50:37.802Z,99212.66
2022-08-19T10:54:58.650Z,99213.53
2022-08-19T10:59:08.941Z,99193.06
2022-08-19T11:03:13.653Z,99201.09
2022-08-19T11:07:17.150Z,99230.41
2022-08-19T11:11:20.314Z,99238.50
2022-08-19T11:15:24.275Z,99232.41
2022-08-19T11:19:28.962Z,99217.31
2022-08-19T11:23:32.105Z,99219.41
2022-08-19T11:27:35.675Z,99208.00
2022-08-19T11:31:40.389Z,99200.78
2022-08-19T11:35:45.308Z,99181.56
2022-08-19T11:39:53.342Z,99159.28
2022-08-19T11:43:57.592Z,99162.19
2022-08-19T11:48:00.863Z,99168.28
2022-08-19T11:52:05.705Z,99154.88
2022-08-19T11:56:10.251Z,99159.53
2022-08-19T12:00:14.826Z,99159.31
2022-08-19T12:04:18.602Z,99149.38
2022-08-19T12:08:25.096Z,99156.81
2022-08-19T12:12:28.563Z,99144.97
2022-08-19T12:16:33.773Z,99154.09
2022-08-19T12:20:38.221Z,99155.78
2022-08-19T12:24:42.986Z,99149.75
2022-08-19T12:28:47.092Z,99154.41
2022-08-19T12:32:52.098Z,99165.59
2022-08-19T12:36:55.543Z,99171.91
2022-08-19T12:41:00.522Z,99177.13
2022-08-19T12:45:03.763Z,99187.00
2022-08-19T12:49:19.944Z,99186.66
2022-08-19T12:53:32.893Z,99191.47
2022-08-19T12:57:39.994Z,99198.00
2022-08-19T13:01:43.406Z,99189.13
2022-08-19T13:05:46.817Z,99190.22
2022-08-19T13:09:49.932Z,99186.53
2022-08-19T13:13:56.301Z,99181.81
2022-08-19T13:17:59.815Z,99158.50
2022-08-19T13:22:02.939Z,99156.06
2022-08-19T13:26:09.035Z,99150.78
2022-08-19T13:30:34.827Z,99143.88
2022-08-19T13:34:38.031Z,99151.44
2022-08-19T13:38:41.157Z,99164.53
2022-08-19T13:42:45.045Z,99166.66
2022-08-19T13:46:54.290Z,99181.50
2022-08-19T13:50:57.655Z,99175.16
2022-08-19T13:55:00.945Z,99176.88
2022-08-19T13:59:04.203Z,99161.44
2022-08-19T14:03:09.486Z,99175.66
2022-08-19T14:07:12.858Z,99168.78
2022-08-19T14:11:17.010Z,99167.28
2022-08-19T14:15:20.155Z,99163.13
2022-08-19T14:19:24.845Z,99159.94
2022-08-19T14:23:33.193Z,99152.06
2022-08-19T14:27:36.581Z,99159.81
2022-08-19T14:31:42.334Z,99139.22
2022-08-19T14:35:46.927Z,99127.53
2022-08-19T14:39:50.053Z,99112.13
2022-08-19T14:43:54.330Z,99085.88
2022-08-19T14:47:57.616Z,99079.00
2022-08-19T14:52:01.998Z,99080.38
2022-08-19T14:56:09.966Z,99064.13
2022-08-19T15:00:14.717Z,99056.59
2022-08-19T15:04:17.928Z,99053.88
2022-08-19T15:08:25.813Z,99050.06
2022-08-19T15:12:28.838Z,99043.91
2022-08-19T15:16:32.065Z,99026.63
2022-08-19T15:20:35.174Z,99031.06
2022-08-19T15:24:47.861Z,99031.06
2022-08-19T15:28:51.719Z,99042.44
2022-08-19T15:32:55.856Z,99049.59
2022-08-19T15:37:00.123Z,99064.13
2022-08-19T15:41:20.133Z,99058.94
2022-08-19T15:45:23.780Z,99060.94
2022-08-19T15:49:27.005Z,99073.03
2022-08-19T15:53:30.216Z,99072.56
2022-08-19T15:57:51.802Z,99069.63
2022-08-19T16:02:12.385Z,99070.75
2022-08-19T16:06:28.347Z,99079.38
2022-08-19T16:10:31.656Z,99066.22
2022-08-19T16:14:38.150Z,99066.22
2022-08-19T16:18:41.474Z,99079.75
2022-08-19T16:22:44.693Z,99072.38
2022-08-19T16:26:48.624Z,99072.38
2022-08-19T16:30:53.028Z,99062.91
2022-08-19T16:34:56.083Z,99066.75
2022-08-19T16:38:59.156Z,99066.28
2022-08-19T16:43:02.921Z,99068.38
2022-08-19T16:47:07.828Z,99064.66
2022-08-19T16:51:11.722Z,99073.53
2022-08-19T16:55:15.520Z,99074.66
2022-08-19T16:59:18.916Z,99055.69
2022-08-19T17:03:35.684Z,99055.69
2022-08-19T17:07:40.226Z,99065.06
2022-08-19T17:11:43.189Z,99084.75
2022-08-19T17:15:46.394Z,99082.34
2022-08-19T17:19:50.787Z,99081.13
2022-08-19T17:23:54.398Z,99089.94
2022-08-19T17:27:57.446Z,99093.16
2022-08-19T17:32:00.797Z,99099.91
2022-08-19T17:36:06.837Z,99086.53
2022-08-19T17:40:11.169Z,99084.19
2022-08-19T17:44:14.600Z,99076.44
2022-08-19T17:48:17.992Z,99082.38
2022-08-19T17:52:22.565Z,99082.59
2022-08-19T17:56:25.997Z,99093.06
2022-08-19T18:00:29.035Z,99100.69
2022-08-19T18:04:34.659Z,99123.19
2022-08-19T18:08:39.981Z,99124.53
2022-08-19T18:12:44.694Z,99125.06
2022-08-19T18:16:48.025Z,99123.97
2022-08-19T18:20:51.617Z,99124.19
2022-08-19T18:24:57.882Z,99126.38
2022-08-19T18:29:01.974Z,99100.59
2022-08-19T18:33:15.073Z,99102.44
2022-08-19T18:37:18.503Z,99099.34
2022-08-19T18:41:40.634Z,99100.56
2022-08-19T18:46:02.829Z,99106.19
2022-08-19T18:50:09.120Z,99117.34
2022-08-19T18:54:15.172Z,99133.81
2022-08-19T18:58:24.379Z,99144.97
2022-08-19T19:02:29.608Z,99139.69
2022-08-19T19:06:40.191Z,99137.84
2022-08-19T19:10:44.537Z,99136.97
2022-08-19T19:14:50.668Z,99159.56
2022-08-19T19:19:04.887Z,99144.47
2022-08-19T19:24:24.591Z,99132.16
2022-08-19T19:28:30.832Z,99133.22
2022-08-19T19:32:39.269Z,99157.03
2022-08-19T19:36:42.654Z,99160.69
2022-08-19T19:40:45.997Z,99167.31
2022-08-19T19:44:50.555Z,99170.88
2022-08-19T19:48:59.842Z,99195.28
2022-08-19T19:53:03.260Z,99238.41
2022-08-19T19:57:06.718Z,99276.31
2022-08-19T20:01:12.838Z,99314.41
2022-08-19T20:05:34.088Z,99344.00
2022-08-19T20:09:58.368Z,99342.72
2022-08-19T20:14:03.514Z,99330.81
2022-08-19T20:18:07.704Z,99345.00
2022-08-19T20:22:14.171Z,99347.44
2022-08-19T20:26:27.173Z,99346.97
2022-08-19T20:30:36.123Z,99349.22
2022-08-19T20:34:44.769Z,99342.88
2022-08-19T20:38:49.907Z,99352.31
2022-08-19T20:42:56.295Z,99356.75
2022-08-19T20:47:03.379Z,99356.78
2022-08-19T20:51:07.712Z,99357.75
2022-08-19T20:55:13.959Z,99359.03
2022-08-19T20:59:17.768Z,99357.72
2022-08-19T21:03:24.169Z,99344.75
2022-08-19T21:07:39.297Z,99323.97
2022-08-19T21:11:44.241Z,99342.59
2022-08-19T21:15:47.940Z,99363.59
2022-08-19T21:19:51.095Z,99387.91
2022-08-19T21:23:54.468Z,99416.69
2022-08-19T21:27:59.203Z,99411.31
2022-08-19T21:32:02.400Z,99382.81
2022-08-19T21:36:06.460Z,99369.56
2022-08-19T21:40:11.091Z,99373.41
2022-08-19T21:44:15.725Z,99368.19
2022-08-19T21:48:19.459Z,99341.63
2022-08-19T21:52:23.406Z,99338.66
2022-08-19T21:56:26.546Z,99337.41
2022-08-19T22:00:32.332Z,99334.72
2022-08-19T22:04:35.654Z,99340.59
2022-08-19T22:08:38.875Z,99343.75
2022-08-19T22:12:47.385Z,99337.94
2022-08-19T22:16:56.420Z,99334.88
2022-08-19T22:20:59.552Z,99331.50
2022-08-19T22:25:07.771Z,99350.78
2022-08-19T22:29:11.526Z,99349.38
2022-08-19T22:33:22.378Z,99345.78
2022-08-19T22:37:26.011Z,99348.19
2022-08-19T22:41:29.142Z,99369.88
2022-08-19T22:45:36.351Z,99380.44
2022-08-19T22:49:40.769Z,99388.84
2022-08-19T22:53:46.060Z,99391.78
2022-08-19T22:57:49.323Z,99397.25
2022-08-19T23:01:52.473Z,99393.78
2022-08-19T23:05:57.243Z,99415.28
2022-08-19T23:10:00.540Z,99420.03
2022-08-19T23:14:05.029Z,99417.34
2022-08-19T23:18:08.814Z,99415.44
2022-08-19T23:22:17.124Z,99421.69
2022-08-19T23:26:20.559Z,99409.91
2022-08-19T23:30:28.381Z,99404.53
2022-08-19T23:34:31.604Z,99394.84
2022-08-19T23:38:36.796Z,99393.34
2022-08-19T23:42:41.963Z,99398.28
2022-08-19T23:46:55.267Z,99387.88
2022-08-19T23:50:59.014Z,99397.06
2022-08-19T23:55:06.257Z,99401.47
2022-08-19T23:59:09.444Z,99410.41
